Time;durP1;ratioP1;P1;durP2;ratioP2;P2;SDS_P1;SDS_P2;PMS_P1;PMS_P2;Temp;Humidity;BMP_temperature;BMP_pressure;BME280_temperature;BME280_humidity;BME280_pressure;Samples;Min_cycle;Max_cycle;Signal;HPM_P1;HPM_P2
2021/09/04 00:00:57;;;;;;;;;;;23.30;59.00;;;;;;4973202;28;19930;-67
2021/09/04 00:03:24;;;;;;;;;;;23.30;59.00;;;;;;4990806;28;19987;-66
2021/09/04 00:05:51;;;;;;;;;;;23.30;59.00;;;;;;4990437;28;20381;-67
2021/09/04 00:08:18;;;;;;;;;;;23.30;59.00;;;;;;4989186;28;19947;-67
2021/09/04 00:10:45;;;;;;;;;;;23.30;59.00;;;;;;4990700;28;20409;-67
2021/09/04 00:13:12;;;;;;;;;;;23.30;59.00;;;;;;4990046;28;20013;-67
2021/09/04 00:15:39;;;;;;;;;;;23.30;59.00;;;;;;4990252;28;20348;-67
2021/09/04 00:18:07;;;;;;;;;;;23.30;59.00;;;;;;4990599;28;20364;-67
2021/09/04 00:20:34;;;;;;;;;;;23.30;59.00;;;;;;4990272;28;20032;-66
2021/09/04 00:23:01;;;;;;;;;;;23.30;59.00;;;;;;4990051;28;19925;-67
2021/09/04 00:25:28;;;;;;;;;;;23.30;59.00;;;;;;4990362;28;19926;-67
2021/09/04 00:27:55;;;;;;;;;;;23.30;59.00;;;;;;4990355;28;19926;-66
2021/09/04 00:30:22;;;;;;;;;;;23.20;58.90;;;;;;4989075;28;19933;-66
2021/09/04 00:32:49;;;;;;;;;;;23.20;58.90;;;;;;4990233;28;19979;-66
2021/09/04 00:35:17;;;;;;;;;;;23.30;59.00;;;;;;4990051;28;19957;-66
2021/09/04 00:37:44;;;;;;;;;;;23.20;58.90;;;;;;4990150;28;20274;-66
2021/09/04 00:40:11;;;;;;;;;;;23.20;59.00;;;;;;4989056;28;20429;-66
2021/09/04 00:42:38;;;;;;;;;;;23.20;59.00;;;;;;4974655;28;20340;-66
2021/09/04 00:45:05;;;;;;;;;;;23.20;58.90;;;;;;4993479;28;19952;-67
2021/09/04 00:47:33;;;;;;;;;;;23.30;59.00;;;;;;4992627;28;19972;-66
2021/09/04 00:50:00;;;;;;;;;;;23.20;59.00;;;;;;4993152;28;20373;-67
2021/09/04 00:52:27;;;;;;;;;;;23.20;58.90;;;;;;4993132;28;20389;-67
2021/09/04 00:54:54;;;;;;;;;;;23.20;58.90;;;;;;4976009;28;19968;-67
2021/09/04 00:57:21;;;;;;;;;;;23.20;58.90;;;;;;4992860;28;20005;-67
2021/09/04 00:59:48;;;;;;;;;;;23.20;58.90;;;;;;4993153;28;19971;-67
2021/09/04 01:02:16;;;;;;;;;;;23.20;58.90;;;;;;4992416;28;19932;-67
2021/09/04 01:04:44;;;;;;;;;;;23.20;58.90;;;;;;4993510;28;19927;-67
2021/09/04 01:07:11;;;;;;;;;;;23.20;58.90;;;;;;4993167;28;19926;-67
2021/09/04 01:09:40;;;;;;;;;;;23.20;58.90;;;;;;4993061;28;20020;-67
2021/09/04 01:12:07;;;;;;;;;;;23.20;58.90;;;;;;4993332;28;19948;-67
2021/09/04 01:14:34;;;;;;;;;;;23.20;58.90;;;;;;4993252;28;19969;-67
2021/09/04 01:17:01;;;;;;;;;;;23.20;58.90;;;;;;4993078;28;20427;-68
2021/09/04 01:19:28;;;;;;;;;;;23.20;58.90;;;;;;4992985;28;19988;-68
2021/09/04 01:21:55;;;;;;;;;;;23.20;58.90;;;;;;4992114;28;20000;-67
2021/09/04 01:24:22;;;;;;;;;;;23.20;58.90;;;;;;4992276;28;19926;-67
2021/09/04 01:26:49;;;;;;;;;;;23.20;58.90;;;;;;4991675;28;19956;-67
2021/09/04 01:29:16;;;;;;;;;;;23.20;58.90;;;;;;4992681;28;19926;-67
2021/09/04 01:31:44;;;;;;;;;;;23.20;58.90;;;;;;4974786;28;19973;-67
2021/09/04 01:34:11;;;;;;;;;;;23.20;58.90;;;;;;4993062;28;20376;-67
2021/09/04 01:36:41;;;;;;;;;;;23.20;58.90;;;;;;4974441;28;19929;-67
2021/09/04 01:39:08;;;;;;;;;;;23.20;58.90;;;;;;4991843;28;20083;-66
2021/09/04 01:41:37;;;;;;;;;;;23.20;58.90;;;;;;4992716;28;19971;-67
2021/09/04 01:44:04;;;;;;;;;;;23.20;58.90;;;;;;4992772;28;19996;-67
2021/09/04 01:46:33;;;;;;;;;;;23.20;58.90;;;;;;4991473;28;19961;-66
2021/09/04 01:49:01;;;;;;;;;;;23.20;58.90;;;;;;4991590;28;19926;-67
2021/09/04 01:51:28;;;;;;;;;;;23.20;58.90;;;;;;4992652;28;19995;-67
2021/09/04 01:53:54;;;;;;;;;;;23.20;58.90;;;;;;4991666;28;20386;-67
2021/09/04 01:56:21;;;;;;;;;;;23.20;58.90;;;;;;4991341;28;19926;-67
2021/09/04 01:58:48;;;;;;;;;;;23.20;58.90;;;;;;4991034;28;20409;-67
2021/09/04 02:01:15;;;;;;;;;;;23.20;58.90;;;;;;4974118;28;19971;-67
2021/09/04 02:03:43;;;;;;;;;;;23.20;58.90;;;;;;4992327;28;19925;-67
2021/09/04 02:06:09;;;;;;;;;;;23.20;58.80;;;;;;4991648;28;19926;-67
2021/09/04 02:08:36;;;;;;;;;;;23.20;58.80;;;;;;4991469;28;19926;-67
2021/09/04 02:11:04;;;;;;;;;;;23.20;58.80;;;;;;4991302;28;19926;-67
2021/09/04 02:13:30;;;;;;;;;;;23.20;58.90;;;;;;4992462;28;20351;-67
2021/09/04 02:15:58;;;;;;;;;;;23.20;58.80;;;;;;4974814;28;19925;-67
2021/09/04 02:18:25;;;;;;;;;;;23.20;58.80;;;;;;4992107;28;19932;-67
2021/09/04 02:20:52;;;;;;;;;;;23.20;58.90;;;;;;4991892;28;19926;-68
2021/09/04 02:23:19;;;;;;;;;;;23.20;58.80;;;;;;4991397;28;19926;-67
2021/09/04 02:25:46;;;;;;;;;;;23.20;58.80;;;;;;4991951;28;19972;-67
2021/09/04 02:28:14;;;;;;;;;;;23.20;58.80;;;;;;4991596;28;19925;-67
2021/09/04 02:30:41;;;;;;;;;;;23.20;58.80;;;;;;4991798;28;19926;-67
2021/09/04 02:33:10;;;;;;;;;;;23.20;58.80;;;;;;4991900;28;19930;-67
2021/09/04 02:35:37;;;;;;;;;;;23.20;58.80;;;;;;4991810;28;20377;-67
2021/09/04 02:38:04;;;;;;;;;;;23.20;58.80;;;;;;4991885;28;20020;-67
2021/09/04 02:40:31;;;;;;;;;;;23.20;58.80;;;;;;4990985;28;19957;-67
2021/09/04 02:42:58;;;;;;;;;;;23.20;58.80;;;;;;4990782;28;19929;-67
2021/09/04 02:45:25;;;;;;;;;;;23.20;58.80;;;;;;4991627;28;20017;-67
2021/09/04 02:47:52;;;;;;;;;;;23.10;58.80;;;;;;4991664;28;19976;-67
2021/09/04 02:50:19;;;;;;;;;;;23.10;58.80;;;;;;4991623;28;19925;-67
2021/09/04 02:52:46;;;;;;;;;;;23.20;58.80;;;;;;4991788;28;19925;-67
2021/09/04 02:55:13;;;;;;;;;;;23.10;58.80;;;;;;4991367;28;19926;-67
2021/09/04 02:57:40;;;;;;;;;;;23.10;58.80;;;;;;4991041;28;20036;-67
2021/09/04 03:00:07;;;;;;;;;;;23.10;58.80;;;;;;4991451;28;19930;-67
2021/09/04 03:02:34;;;;;;;;;;;23.10;58.80;;;;;;4990899;28;19934;-67
2021/09/04 03:05:01;;;;;;;;;;;23.10;58.80;;;;;;4990527;28;19930;-67
2021/09/04 03:07:28;;;;;;;;;;;23.10;58.80;;;;;;4991474;28;20020;-67
2021/09/04 03:09:55;;;;;;;;;;;23.10;58.70;;;;;;4974697;28;19995;-67
2021/09/04 03:12:22;;;;;;;;;;;23.10;58.80;;;;;;4990210;28;19926;-67
2021/09/04 03:14:49;;;;;;;;;;;23.20;58.80;;;;;;4991479;28;19969;-67
2021/09/04 03:17:16;;;;;;;;;;;23.20;58.80;;;;;;4990571;28;19926;-67
2021/09/04 03:19:43;;;;;;;;;;;23.10;58.70;;;;;;4989811;28;19926;-67
2021/09/04 03:22:10;;;;;;;;;;;23.20;58.80;;;;;;4989965;28;20393;-67
2021/09/04 03:24:38;;;;;;;;;;;23.20;58.80;;;;;;4991347;28;19972;-67
2021/09/04 03:27:06;;;;;;;;;;;23.10;58.70;;;;;;4989867;28;19948;-68
2021/09/04 03:29:33;;;;;;;;;;;23.10;58.60;;;;;;4991325;28;20058;-67
2021/09/04 03:32:00;;;;;;;;;;;23.20;58.70;;;;;;4991301;28;20338;-67
2021/09/04 03:34:27;;;;;;;;;;;23.10;58.60;;;;;;4973697;28;19926;-67
2021/09/04 03:36:54;;;;;;;;;;;23.10;58.60;;;;;;4990971;28;20389;-67
2021/09/04 03:39:20;;;;;;;;;;;23.10;58.60;;;;;;4991212;28;19932;-68
2021/09/04 03:41:47;;;;;;;;;;;23.10;58.70;;;;;;4990723;28;19925;-67
2021/09/04 03:44:14;;;;;;;;;;;23.20;58.70;;;;;;4991010;28;20270;-67
2021/09/04 03:46:41;;;;;;;;;;;23.20;58.70;;;;;;4989995;28;19979;-67
2021/09/04 03:49:08;;;;;;;;;;;23.10;58.70;;;;;;4989432;28;20468;-67
2021/09/04 03:51:35;;;;;;;;;;;23.10;58.60;;;;;;4990127;28;20262;-68
2021/09/04 03:54:02;;;;;;;;;;;23.20;58.70;;;;;;4990470;28;19987;-68
2021/09/04 03:56:29;;;;;;;;;;;23.10;58.60;;;;;;4990200;28;19973;-68
2021/09/04 03:58:56;;;;;;;;;;;23.20;58.70;;;;;;4991075;28;20350;-67
2021/09/04 04:01:23;;;;;;;;;;;23.10;58.60;;;;;;4990570;28;19969;-67
2021/09/04 04:03:50;;;;;;;;;;;23.20;58.70;;;;;;4973840;28;19933;-68
2021/09/04 04:06:17;;;;;;;;;;;23.10;58.60;;;;;;4973296;28;19975;-68
2021/09/04 04:08:44;;;;;;;;;;;23.20;58.60;;;;;;4990966;28;20020;-68
2021/09/04 04:11:11;;;;;;;;;;;23.20;58.70;;;;;;4989723;28;20024;-68
2021/09/04 04:13:39;;;;;;;;;;;23.20;58.60;;;;;;4990328;28;20641;-68
2021/09/04 04:16:06;;;;;;;;;;;23.20;58.60;;;;;;4990893;28;19926;-67
2021/09/04 04:18:36;;;;;;;;;;;23.20;58.60;;;;;;4996755;28;19961;-68
2021/09/04 04:21:03;;;;;;;;;;;23.20;58.60;;;;;;4996791;28;19937;-67
2021/09/04 04:23:30;;;;;;;;;;;23.20;58.60;;;;;;4997056;28;19926;-67
2021/09/04 04:25:57;;;;;;;;;;;23.20;58.60;;;;;;4979728;28;19965;-67
2021/09/04 04:28:24;;;;;;;;;;;23.20;58.60;;;;;;4995508;28;20008;-67
2021/09/04 04:30:51;;;;;;;;;;;23.20;58.60;;;;;;4995529;28;19965;-67
2021/09/04 04:33:18;;;;;;;;;;;23.20;58.60;;;;;;4996869;28;19933;-67
2021/09/04 04:35:45;;;;;;;;;;;23.20;58.60;;;;;;4995596;28;19926;-67
2021/09/04 04:38:12;;;;;;;;;;;23.20;58.50;;;;;;4996575;28;19968;-67
2021/09/04 04:40:39;;;;;;;;;;;23.20;58.50;;;;;;4996455;28;19975;-68
2021/09/04 04:43:06;;;;;;;;;;;23.20;58.50;;;;;;4995450;28;19926;-67
2021/09/04 04:45:33;;;;;;;;;;;23.20;58.50;;;;;;4996728;28;20343;-67
2021/09/04 04:48:00;;;;;;;;;;;23.20;58.50;;;;;;4978452;28;20290;-67
2021/09/04 04:50:27;;;;;;;;;;;23.20;58.50;;;;;;4996708;28;19976;-67
2021/09/04 04:52:54;;;;;;;;;;;23.20;58.50;;;;;;4995474;28;19926;-67
2021/09/04 04:55:21;;;;;;;;;;;23.20;58.40;;;;;;4996086;28;19933;-68
2021/09/04 04:57:48;;;;;;;;;;;23.20;58.40;;;;;;4996290;28;20009;-67
2021/09/04 05:00:15;;;;;;;;;;;23.20;58.40;;;;;;4978579;28;19926;-67
2021/09/04 05:02:42;;;;;;;;;;;23.20;58.40;;;;;;4996796;28;20332;-68
2021/09/04 05:05:11;;;;;;;;;;;23.20;58.30;;;;;;4994915;28;20127;-67
2021/09/04 05:07:38;;;;;;;;;;;23.20;58.30;;;;;;4996729;28;20274;-68
2021/09/04 05:10:05;;;;;;;;;;;23.20;58.30;;;;;;4995294;28;19972;-67
2021/09/04 05:12:32;;;;;;;;;;;23.20;58.30;;;;;;4995348;28;20326;-67
2021/09/04 05:14:59;;;;;;;;;;;23.20;58.20;;;;;;4995411;28;20296;-67
2021/09/04 05:17:27;;;;;;;;;;;23.30;58.30;;;;;;4999331;28;20402;-67
2021/09/04 05:19:54;;;;;;;;;;;23.30;58.30;;;;;;4999108;28;19979;-68
2021/09/04 05:22:21;;;;;;;;;;;23.20;58.20;;;;;;4996259;28;19972;-67
2021/09/04 05:24:48;;;;;;;;;;;23.30;58.20;;;;;;4996367;28;19933;-68
2021/09/04 05:27:15;;;;;;;;;;;23.30;58.20;;;;;;4995411;28;19926;-68
2021/09/04 05:29:42;;;;;;;;;;;23.30;58.20;;;;;;4975001;28;19926;-67
2021/09/04 05:32:09;;;;;;;;;;;23.30;58.10;;;;;;4992599;28;19929;-67
2021/09/04 05:34:35;;;;;;;;;;;23.30;58.10;;;;;;4991873;28;20017;-67
2021/09/04 05:37:02;;;;;;;;;;;23.40;58.10;;;;;;4993026;28;20347;-67
2021/09/04 05:39:29;;;;;;;;;;;23.30;58.00;;;;;;4992831;28;20348;-68
2021/09/04 05:41:56;;;;;;;;;;;23.30;58.00;;;;;;4992605;28;20017;-68
2021/09/04 05:44:23;;;;;;;;;;;23.30;58.50;;;;;;4992456;28;19926;-67
2021/09/04 05:46:50;;;;;;;;;;;23.30;57.90;;;;;;4991667;28;19945;-67
2021/09/04 05:49:17;;;;;;;;;;;23.30;57.90;;;;;;4992099;28;20412;-68
2021/09/04 05:51:44;;;;;;;;;;;23.40;57.90;;;;;;4992537;28;20017;-68
2021/09/04 05:54:11;;;;;;;;;;;23.40;57.90;;;;;;4990850;28;20398;-67
2021/09/04 05:56:38;;;;;;;;;;;23.40;57.80;;;;;;4975005;28;19971;-68
2021/09/04 05:59:05;;;;;;;;;;;23.40;57.80;;;;;;4992362;28;19925;-67
2021/09/04 06:01:32;;;;;;;;;;;23.40;57.70;;;;;;4992326;28;19933;-68
2021/09/04 06:03:59;;;;;;;;;;;23.50;57.70;;;;;;4991176;28;19988;-67
2021/09/04 06:06:26;;;;;;;;;;;23.50;57.70;;;;;;4991919;28;19982;-68
2021/09/04 06:08:53;;;;;;;;;;;23.50;57.70;;;;;;4992170;28;19976;-67
2021/09/04 06:11:20;;;;;;;;;;;23.50;57.60;;;;;;4990917;28;19934;-68
2021/09/04 06:13:47;;;;;;;;;;;23.50;57.60;;;;;;4991855;28;20435;-68
2021/09/04 06:16:14;;;;;;;;;;;23.50;57.50;;;;;;4991881;28;20071;-67
2021/09/04 06:18:41;;;;;;;;;;;23.50;57.50;;;;;;4992192;28;20297;-67
2021/09/04 06:21:08;;;;;;;;;;;23.60;57.50;;;;;;4992139;28;19940;-68
2021/09/04 06:23:35;;;;;;;;;;;23.60;57.40;;;;;;4991877;28;19940;-67
2021/09/04 06:26:02;;;;;;;;;;;23.60;57.30;;;;;;4991694;28;19975;-68
2021/09/04 06:28:29;;;;;;;;;;;23.60;57.30;;;;;;4991797;28;19936;-67
2021/09/04 06:30:56;;;;;;;;;;;23.70;57.30;;;;;;4991976;28;19926;-68
2021/09/04 06:33:24;;;;;;;;;;;23.70;57.30;;;;;;4991545;28;19926;-68
2021/09/04 06:35:53;;;;;;;;;;;23.70;57.20;;;;;;4990884;28;20307;-67
2021/09/04 06:38:20;;;;;;;;;;;23.70;57.20;;;;;;4991854;28;19991;-67
2021/09/04 06:40:47;;;;;;;;;;;23.70;57.10;;;;;;4990352;28;20013;-68
2021/09/04 06:43:14;;;;;;;;;;;23.70;57.10;;;;;;4990474;28;20048;-67
2021/09/04 06:45:41;;;;;;;;;;;23.80;57.10;;;;;;4990671;28;19969;-68
2021/09/04 06:48:08;;;;;;;;;;;23.80;57.00;;;;;;4990836;28;19934;-67
2021/09/04 06:50:35;;;;;;;;;;;23.80;56.90;;;;;;4990860;28;19926;-67
2021/09/04 06:53:03;;;;;;;;;;;23.80;56.90;;;;;;4974594;28;20017;-67
2021/09/04 06:55:30;;;;;;;;;;;23.80;56.90;;;;;;4991202;28;20382;-67
2021/09/04 06:57:57;;;;;;;;;;;23.80;56.90;;;;;;4990216;28;19926;-67
2021/09/04 07:00:24;;;;;;;;;;;23.80;56.90;;;;;;4991261;28;19976;-67
2021/09/04 07:02:51;;;;;;;;;;;23.80;56.90;;;;;;4973351;28;20328;-67
2021/09/04 07:05:22;;;;;;;;;;;23.80;57.00;;;;;;4991518;28;20008;-67
2021/09/04 07:07:49;;;;;;;;;;;23.80;57.00;;;;;;4973282;28;20337;-67
2021/09/04 07:10:16;;;;;;;;;;;23.70;56.90;;;;;;4991309;28;19999;-67
2021/09/04 07:12:43;;;;;;;;;;;23.70;57.00;;;;;;4990101;28;19980;-68
2021/09/04 07:15:10;;;;;;;;;;;23.70;56.90;;;;;;4989937;28;20012;-67
2021/09/04 07:17:38;;;;;;;;;;;23.70;57.00;;;;;;4989780;28;19956;-66
2021/09/04 07:20:05;;;;;;;;;;;23.70;57.00;;;;;;4990641;28;20012;-67
2021/09/04 07:22:34;;;;;;;;;;;23.70;57.00;;;;;;4990697;28;20335;-67
2021/09/04 07:25:01;;;;;;;;;;;23.70;57.00;;;;;;4990084;28;20304;-68
2021/09/04 07:27:27;;;;;;;;;;;23.80;57.00;;;;;;4989778;28;20012;-67
2021/09/04 07:29:55;;;;;;;;;;;23.80;57.00;;;;;;4990763;28;19929;-67
2021/09/04 07:32:23;;;;;;;;;;;23.80;57.00;;;;;;4990697;28;19969;-67
2021/09/04 07:34:49;;;;;;;;;;;23.80;56.90;;;;;;4990787;28;19930;-68
2021/09/04 07:37:16;;;;;;;;;;;23.80;56.90;;;;;;4990669;28;20021;-68
2021/09/04 07:39:43;;;;;;;;;;;23.80;57.00;;;;;;4990912;28;20365;-67
2021/09/04 07:42:10;;;;;;;;;;;23.80;56.90;;;;;;4989494;28;20008;-68
2021/09/04 07:44:37;;;;;;;;;;;23.80;56.90;;;;;;4990160;28;20020;-67
2021/09/04 07:47:04;;;;;;;;;;;23.80;56.90;;;;;;4990875;28;20269;-67
2021/09/04 07:49:31;;;;;;;;;;;23.80;57.00;;;;;;4990631;28;20021;-67
2021/09/04 07:51:58;;;;;;;;;;;23.80;56.90;;;;;;4988636;28;19977;-68
2021/09/04 07:54:25;;;;;;;;;;;23.80;56.90;;;;;;4969018;28;19970;-66
2021/09/04 07:56:52;;;;;;;;;;;23.80;56.90;;;;;;4971516;28;19926;-68
2021/09/04 07:59:19;;;;;;;;;;;23.80;56.90;;;;;;4989774;28;19965;-67
2021/09/04 08:01:46;;;;;;;;;;;23.80;56.80;;;;;;4989523;28;19926;-67
2021/09/04 08:04:14;;;;;;;;;;;23.90;56.90;;;;;;4989596;28;19932;-67
2021/09/04 08:06:41;;;;;;;;;;;23.90;56.90;;;;;;4990183;28;20389;-67
2021/09/04 08:09:08;;;;;;;;;;;23.90;56.90;;;;;;4989219;28;19926;-67
2021/09/04 08:11:35;;;;;;;;;;;23.90;56.90;;;;;;4990192;28;19925;-67
2021/09/04 08:14:02;;;;;;;;;;;23.90;57.00;;;;;;4990370;28;19926;-67
2021/09/04 08:16:29;;;;;;;;;;;23.90;57.00;;;;;;4990385;28;19929;-67
2021/09/04 08:18:56;;;;;;;;;;;23.90;57.00;;;;;;4972805;28;19933;-67
2021/09/04 08:21:23;;;;;;;;;;;23.90;57.10;;;;;;4990219;28;19961;-67
2021/09/04 08:23:50;;;;;;;;;;;23.90;57.00;;;;;;4990246;28;20058;-67
2021/09/04 08:26:17;;;;;;;;;;;23.90;57.10;;;;;;4989123;28;20021;-67
2021/09/04 08:28:44;;;;;;;;;;;23.90;57.10;;;;;;4990332;28;19926;-67
2021/09/04 08:31:11;;;;;;;;;;;23.90;57.00;;;;;;4972141;28;19948;-67
2021/09/04 08:33:38;;;;;;;;;;;23.90;57.00;;;;;;4972015;28;20328;-67
2021/09/04 08:36:05;;;;;;;;;;;23.90;57.00;;;;;;4990213;28;19933;-67
2021/09/04 08:38:32;;;;;;;;;;;24.00;57.10;;;;;;4990188;28;20017;-67
2021/09/04 08:40:59;;;;;;;;;;;24.00;57.10;;;;;;4989990;28;19972;-67
2021/09/04 08:43:26;;;;;;;;;;;23.90;57.10;;;;;;4989958;28;20439;-68
2021/09/04 08:45:53;;;;;;;;;;;24.00;57.20;;;;;;4989227;28;19937;-68
2021/09/04 08:48:20;;;;;;;;;;;24.00;57.20;;;;;;4989881;28;20451;-68
2021/09/04 08:50:47;;;;;;;;;;;24.00;57.20;;;;;;4989883;28;19926;-67
2021/09/04 08:53:14;;;;;;;;;;;24.00;57.30;;;;;;4988969;28;20013;-68
2021/09/04 08:55:41;;;;;;;;;;;23.90;57.20;;;;;;4989469;28;19967;-67
2021/09/04 08:58:08;;;;;;;;;;;24.00;57.30;;;;;;4989578;28;19925;-67
2021/09/04 09:00:36;;;;;;;;;;;24.00;57.30;;;;;;4988527;28;19948;-67
2021/09/04 09:03:04;;;;;;;;;;;24.00;57.30;;;;;;4991443;28;19926;-68
2021/09/04 09:05:50;;;;;;;;;;;24.00;57.30;;;;;;4992295;28;19962;-68
2021/09/04 09:08:21;;;;;;;;;;;24.00;57.30;;;;;;4993042;28;20346;-68
2021/09/04 09:10:48;;;;;;;;;;;24.00;57.30;;;;;;4993472;28;20335;-68
2021/09/04 09:13:16;;;;;;;;;;;24.00;57.30;;;;;;4993076;28;20343;-68
2021/09/04 09:15:43;;;;;;;;;;;24.00;57.30;;;;;;4991782;28;20377;-67
2021/09/04 09:18:11;;;;;;;;;;;24.00;57.40;;;;;;4992639;28;19930;-68
2021/09/04 09:20:39;;;;;;;;;;;24.00;57.40;;;;;;4991581;28;19966;-68
2021/09/04 09:23:08;;;;;;;;;;;24.00;57.40;;;;;;4992796;28;19926;-68
2021/09/04 09:25:35;;;;;;;;;;;24.00;57.40;;;;;;4992709;28;19965;-67
2021/09/04 09:28:06;;;;;;;;;;;24.00;57.50;;;;;;4991609;28;20319;-68
2021/09/04 09:30:40;;;;;;;;;;;24.00;57.50;;;;;;4991527;28;20391;-68
2021/09/04 09:33:08;;;;;;;;;;;24.00;57.50;;;;;;4991689;28;19973;-68
2021/09/04 09:35:36;;;;;;;;;;;24.00;57.50;;;;;;4991334;28;20390;-67
2021/09/04 09:38:04;;;;;;;;;;;24.00;57.50;;;;;;4992391;28;19926;-68
2021/09/04 09:40:32;;;;;;;;;;;24.00;57.50;;;;;;4974163;28;19972;-68
2021/09/04 09:42:59;;;;;;;;;;;24.00;57.50;;;;;;4991657;28;19934;-68
2021/09/04 09:45:45;;;;;;;;;;;24.00;57.50;;;;;;4992385;28;19926;-67
2021/09/04 09:48:15;;;;;;;;;;;24.00;57.60;;;;;;4992270;28;19926;-67
2021/09/04 09:50:42;;;;;;;;;;;24.00;57.60;;;;;;4992328;28;19925;-67
2021/09/04 09:53:09;;;;;;;;;;;24.00;57.60;;;;;;4992491;28;19932;-67
2021/09/04 09:55:36;;;;;;;;;;;24.00;57.80;;;;;;4990989;28;19929;-67
2021/09/04 09:58:03;;;;;;;;;;;24.00;57.70;;;;;;4975175;28;19948;-67
2021/09/04 10:00:30;;;;;;;;;;;24.00;57.60;;;;;;4992554;28;19953;-68
2021/09/04 10:02:59;;;;;;;;;;;24.00;57.70;;;;;;4992472;28;19926;-68
2021/09/04 10:05:28;;;;;;;;;;;24.00;57.70;;;;;;4992027;28;19961;-68
2021/09/04 10:07:57;;;;;;;;;;;24.00;57.60;;;;;;4992465;28;19925;-67
2021/09/04 10:10:25;;;;;;;;;;;24.00;57.70;;;;;;4991913;28;19926;-68
2021/09/04 10:12:52;;;;;;;;;;;24.00;57.70;;;;;;4991419;28;19926;-67
2021/09/04 10:15:20;;;;;;;;;;;24.00;57.80;;;;;;4991497;28;19939;-68
2021/09/04 10:17:49;;;;;;;;;;;24.00;57.80;;;;;;4973870;28;20282;-68
2021/09/04 10:20:16;;;;;;;;;;;24.00;57.70;;;;;;4991212;28;19929;-68
2021/09/04 10:22:44;;;;;;;;;;;24.00;57.70;;;;;;4992225;28;19934;-68
2021/09/04 10:25:15;;;;;;;;;;;24.00;57.70;;;;;;4991787;28;19992;-67
2021/09/04 10:27:44;;;;;;;;;;;24.00;57.70;;;;;;4991659;28;19926;-68
2021/09/04 10:30:24;;;;;;;;;;;24.00;57.70;;;;;;4991776;28;19987;-67
2021/09/04 10:32:58;;;;;;;;;;;24.00;57.70;;;;;;4953784;28;19944;-68
2021/09/04 10:35:37;;;;;;;;;;;24.00;57.70;;;;;;4985740;28;20070;-67
2021/09/04 10:38:19;;;;;;;;;;;24.00;57.70;;;;;;4991809;28;20011;-68
2021/09/04 10:40:47;;;;;;;;;;;24.00;57.70;;;;;;4991544;28;20270;-67
2021/09/04 10:43:16;;;;;;;;;;;24.00;57.70;;;;;;4991535;28;20405;-68
2021/09/04 10:45:50;;;;;;;;;;;24.00;57.60;;;;;;4974221;28;19975;-68
2021/09/04 10:48:18;;;;;;;;;;;24.00;57.60;;;;;;4990629;28;19926;-67
2021/09/04 10:51:04;;;;;;;;;;;24.00;57.60;;;;;;4991848;28;19926;-67
2021/09/04 10:53:47;;;;;;;;;;;24.00;57.60;;;;;;4990890;28;20074;-68
2021/09/04 10:56:17;;;;;;;;;;;24.00;57.60;;;;;;4988051;28;19976;-67
2021/09/04 10:58:44;;;;;;;;;;;24.00;57.60;;;;;;4991181;28;19926;-67
2021/09/04 11:01:16;;;;;;;;;;;24.00;57.60;;;;;;4990525;28;20026;-67
2021/09/04 11:03:49;;;;;;;;;;;24.00;57.60;;;;;;4990478;28;19926;-68
2021/09/04 11:06:20;;;;;;;;;;;24.00;57.50;;;;;;4991192;28;20278;-68
2021/09/04 11:08:47;;;;;;;;;;;24.10;57.60;;;;;;4990335;28;19988;-68
2021/09/04 11:11:32;;;;;;;;;;;24.00;57.50;;;;;;4991168;28;20385;-68
2021/09/04 11:14:00;;;;;;;;;;;24.10;57.60;;;;;;4989898;28;19956;-68
2021/09/04 11:16:33;;;;;;;;;;;24.10;57.60;;;;;;4990373;28;19926;-67
2021/09/04 11:19:14;;;;;;;;;;;24.10;57.60;;;;;;4990857;28;19926;-68
2021/09/04 11:21:52;;;;;;;;;;;24.10;57.60;;;;;;4990301;28;19929;-68
2021/09/04 11:24:23;;;;;;;;;;;24.10;57.50;;;;;;4990048;28;19992;-68
2021/09/04 11:26:55;;;;;;;;;;;24.10;57.50;;;;;;4988762;28;20012;-68
2021/09/04 11:29:22;;;;;;;;;;;24.10;57.50;;;;;;4991152;28;19925;-67
2021/09/04 11:31:58;;;;;;;;;;;24.10;57.50;;;;;;4989942;28;19975;-67
2021/09/04 11:34:46;;;;;;;;;;;24.10;57.50;;;;;;4991317;28;19981;-67
2021/09/04 11:37:16;;;;;;;;;;;24.10;57.50;;;;;;4991128;28;20044;-67
2021/09/04 11:39:43;;;;;;;;;;;24.10;57.40;;;;;;4991039;28;19932;-67
2021/09/04 11:42:17;;;;;;;;;;;24.10;57.50;;;;;;4990629;28;19930;-67
2021/09/04 11:44:45;;;;;;;;;;;24.10;57.40;;;;;;4991022;28;19925;-67
2021/09/04 11:47:13;;;;;;;;;;;24.10;57.50;;;;;;4991074;28;20005;-67
2021/09/04 11:49:44;;;;;;;;;;;24.10;57.40;;;;;;4990791;28;19933;-67
2021/09/04 11:52:18;;;;;;;;;;;24.10;57.40;;;;;;4990927;28;20017;-67
2021/09/04 11:54:45;;;;;;;;;;;24.10;57.40;;;;;;4990800;28;20029;-67
2021/09/04 11:57:28;;;;;;;;;;;24.10;57.40;;;;;;4989439;28;19940;-67
2021/09/04 12:00:03;;;;;;;;;;;24.10;57.40;;;;;;4989469;28;19973;-67
2021/09/04 12:02:32;;;;;;;;;;;24.10;57.40;;;;;;4989628;28;19930;-67
2021/09/04 12:05:02;;;;;;;;;;;24.10;57.40;;;;;;4990761;28;20323;-67
2021/09/04 12:07:30;;;;;;;;;;;24.10;57.40;;;;;;4989725;28;19930;-67
2021/09/04 12:09:58;;;;;;;;;;;24.10;57.40;;;;;;4989512;28;19976;-67
2021/09/04 12:12:26;;;;;;;;;;;24.10;57.30;;;;;;4972465;28;20296;-67
2021/09/04 12:14:54;;;;;;;;;;;24.10;57.30;;;;;;4989673;28;19930;-67
2021/09/04 12:17:21;;;;;;;;;;;24.10;57.30;;;;;;4973602;28;19941;-67
2021/09/04 12:19:49;;;;;;;;;;;24.10;57.20;;;;;;4990358;28;20451;-67
2021/09/04 12:22:16;;;;;;;;;;;24.10;57.20;;;;;;4989346;28;20016;-67
2021/09/04 12:24:43;;;;;;;;;;;24.10;57.20;;;;;;4990594;28;19968;-68
2021/09/04 12:27:10;;;;;;;;;;;24.10;57.20;;;;;;4989613;28;19930;-67
2021/09/04 12:29:37;;;;;;;;;;;24.10;57.20;;;;;;4989483;28;20289;-68
2021/09/04 12:32:05;;;;;;;;;;;24.10;57.20;;;;;;4990639;28;19983;-68
2021/09/04 12:34:32;;;;;;;;;;;24.10;57.20;;;;;;4973042;28;19980;-67
2021/09/04 12:36:59;;;;;;;;;;;24.10;57.20;;;;;;4990647;28;20289;-67
2021/09/04 12:39:28;;;;;;;;;;;24.10;57.20;;;;;;4992780;28;19925;-67
2021/09/04 12:42:05;;;;;;;;;;;24.10;57.20;;;;;;4993068;28;19926;-67
2021/09/04 12:44:39;;;;;;;;;;;24.10;57.30;;;;;;4993221;28;19948;-67
2021/09/04 12:47:06;;;;;;;;;;;24.10;57.80;;;;;;4993273;28;19930;-67
2021/09/04 12:49:34;;;;;;;;;;;24.10;57.20;;;;;;4992584;28;19926;-68
2021/09/04 12:52:01;;;;;;;;;;;24.10;57.20;;;;;;4993366;28;19929;-67
2021/09/04 12:54:30;;;;;;;;;;;24.10;57.20;;;;;;4992402;28;20274;-67
2021/09/04 12:57:05;;;;;;;;;;;24.10;57.20;;;;;;4992961;28;19926;-67
2021/09/04 12:59:41;;;;;;;;;;;24.10;57.20;;;;;;4993728;28;19926;-67
2021/09/04 13:02:09;;;;;;;;;;;24.10;57.20;;;;;;4993510;28;20007;-67
2021/09/04 13:04:36;;;;;;;;;;;24.10;57.20;;;;;;4992215;28;19926;-68
2021/09/04 13:07:03;;;;;;;;;;;24.10;57.20;;;;;;4993116;28;19965;-67
2021/09/04 13:09:30;;;;;;;;;;;24.10;57.20;;;;;;4992971;28;19933;-67
2021/09/04 13:11:57;;;;;;;;;;;24.10;57.20;;;;;;4993386;28;19972;-67
2021/09/04 13:14:24;;;;;;;;;;;24.10;57.20;;;;;;4992202;28;19975;-67
2021/09/04 13:16:53;;;;;;;;;;;24.10;57.20;;;;;;4992045;28;19930;-67
2021/09/04 13:19:20;;;;;;;;;;;24.10;57.20;;;;;;4992727;28;19926;-67
2021/09/04 13:21:47;;;;;;;;;;;24.10;57.20;;;;;;4992088;28;20336;-67
2021/09/04 13:24:14;;;;;;;;;;;24.10;57.20;;;;;;4992059;28;19979;-67
2021/09/04 13:26:41;;;;;;;;;;;24.10;57.20;;;;;;4993027;28;19958;-67
2021/09/04 13:29:08;;;;;;;;;;;24.10;57.20;;;;;;4992917;28;20377;-67
2021/09/04 13:31:35;;;;;;;;;;;24.10;57.20;;;;;;4991821;28;20416;-68
2021/09/04 13:34:02;;;;;;;;;;;24.10;57.20;;;;;;4992855;28;20009;-68
2021/09/04 13:36:29;;;;;;;;;;;24.10;57.20;;;;;;4975850;28;19930;-67
2021/09/04 13:38:56;;;;;;;;;;;24.10;57.20;;;;;;4993023;28;20052;-67
2021/09/04 13:41:23;;;;;;;;;;;24.10;57.20;;;;;;4992989;28;20029;-67
2021/09/04 13:43:50;;;;;;;;;;;24.10;57.20;;;;;;4996140;28;19932;-67
2021/09/04 13:46:17;;;;;;;;;;;24.10;57.10;;;;;;4991583;28;20051;-67
2021/09/04 13:48:44;;;;;;;;;;;24.10;57.10;;;;;;4990856;28;19976;-67
2021/09/04 13:51:11;;;;;;;;;;;24.10;57.10;;;;;;4991483;28;19957;-68
2021/09/04 13:53:37;;;;;;;;;;;24.10;57.00;;;;;;4991620;28;19995;-68
2021/09/04 13:56:04;;;;;;;;;;;24.10;57.00;;;;;;4991285;28;20361;-67
2021/09/04 13:58:31;;;;;;;;;;;24.10;57.00;;;;;;4992255;28;20028;-68
2021/09/04 14:00:58;;;;;;;;;;;24.10;57.00;;;;;;4992413;28;19972;-67
2021/09/04 14:03:25;;;;;;;;;;;24.10;57.00;;;;;;4992101;28;19926;-67
2021/09/04 14:05:52;;;;;;;;;;;24.10;57.00;;;;;;4992593;28;19979;-67
2021/09/04 14:08:19;;;;;;;;;;;24.10;57.00;;;;;;4992456;28;19926;-67
2021/09/04 14:10:46;;;;;;;;;;;24.10;57.00;;;;;;4992109;28;20009;-67
2021/09/04 14:13:14;;;;;;;;;;;24.10;57.00;;;;;;4992151;28;20439;-67
2021/09/04 14:15:41;;;;;;;;;;;24.10;57.00;;;;;;4991266;28;19973;-67
2021/09/04 14:18:08;;;;;;;;;;;24.10;57.00;;;;;;4991915;28;19926;-67
2021/09/04 14:20:35;;;;;;;;;;;24.10;57.00;;;;;;4974006;28;20346;-67